TAF LECV
LECV 090500Z 0906/1006 25012KT 9999 SCT030 BKN040 TX10/0915Z TN02/0906Z TEMPO 0906/0908 VRB05KT PROB40 TEMPO 0908/0918 25015G25KT PROB30 TEMPO 0908/0918 24020G35KT PROB40 TEMPO 0923/1006 2000 BR SCT005=
METAR LECV
LECV 090930Z 19007KT 9999 FEW015 BKN030 06/02 Q1019=
LECV 090900Z 24011KT 9999 FEW025 BKN035 07/03 Q1019=
LECV 090830Z 24010KT 9999 FEW025 BKN035 07/02 Q1019=
LECV 090800Z VRB01KT 9999 FEW025 BKN040 04/00 Q1019=
LECV 090730Z VRB02KT 9999 FEW025 BKN040 04/00 Q1019=
WC LECV
WS LECV
WV LECV